sensor_id;sensor_type;location;lat;lon;timestamp;pressure;altitude;pressure_sealevel;temperature;humidity
51081;BME280;37130;55.670;37.596;2022-11-15T00:01:29;100149.94;;;0.42;56.53
51081;BME280;37130;55.670;37.596;2022-11-15T00:04:15;100153.41;;;0.49;56.43
51081;BME280;37130;55.670;37.596;2022-11-15T00:07:01;100156.88;;;0.50;56.71
51081;BME280;37130;55.670;37.596;2022-11-15T00:09:47;100157.78;;;0.52;56.60
51081;BME280;37130;55.670;37.596;2022-11-15T00:12:33;100156.91;;;0.53;56.53
51081;BME280;37130;55.670;37.596;2022-11-15T00:15:19;100147.34;;;0.52;56.61
51081;BME280;37130;55.670;37.596;2022-11-15T00:18:05;100139.53;;;0.50;56.77
51081;BME280;37130;55.670;37.596;2022-11-15T00:20:51;100149.09;;;0.48;56.77
51081;BME280;37130;55.670;37.596;2022-11-15T00:23:37;100148.22;;;0.49;56.59
51081;BME280;37130;55.670;37.596;2022-11-15T00:26:23;100143.88;;;0.50;56.88
51081;BME280;37130;55.670;37.596;2022-11-15T00:29:09;100140.41;;;0.48;56.50
51081;BME280;37130;55.670;37.596;2022-11-15T00:31:55;100140.41;;;0.48;56.84
51081;BME280;37130;55.670;37.596;2022-11-15T00:34:41;100138.66;;;0.48;56.50
51081;BME280;37130;55.670;37.596;2022-11-15T00:37:28;100132.56;;;0.46;56.52
51081;BME280;37130;55.670;37.596;2022-11-15T00:40:14;100129.94;;;0.35;56.76
51081;BME280;37130;55.670;37.596;2022-11-15T00:43:00;100123.00;;;0.33;56.87
51081;BME280;37130;55.670;37.596;2022-11-15T00:45:46;100126.47;;;0.30;56.73
51081;BME280;37130;55.670;37.596;2022-11-15T00:48:32;100124.72;;;0.31;56.61
51081;BME280;37130;55.670;37.596;2022-11-15T00:51:18;100121.25;;;0.30;56.86
51081;BME280;37130;55.670;37.596;2022-11-15T00:54:03;100119.53;;;0.29;56.83
51081;BME280;37130;55.670;37.596;2022-11-15T00:56:49;100114.28;;;0.26;56.47
51081;BME280;37130;55.670;37.596;2022-11-15T00:59:36;100106.47;;;0.28;56.75
51081;BME280;37130;55.670;37.596;2022-11-15T01:02:22;100108.25;;;0.32;56.57
51081;BME280;37130;55.670;37.596;2022-11-15T01:05:08;100106.50;;;0.35;56.65
51081;BME280;37130;55.670;37.596;2022-11-15T01:07:54;100105.63;;;0.33;56.68
51081;BME280;37130;55.670;37.596;2022-11-15T01:10:41;100103.03;;;0.30;56.97
51081;BME280;37130;55.670;37.596;2022-11-15T01:13:29;100101.28;;;0.28;57.05
51081;BME280;37130;55.670;37.596;2022-11-15T01:16:16;100108.22;;;0.27;56.80
51081;BME280;37130;55.670;37.596;2022-11-15T01:19:03;100103.88;;;0.25;56.74
51081;BME280;37130;55.670;37.596;2022-11-15T01:21:49;100098.66;;;0.26;56.90
51081;BME280;37130;55.670;37.596;2022-11-15T01:24:36;100103.88;;;0.26;56.66
51081;BME280;37130;55.670;37.596;2022-11-15T01:27:21;100095.19;;;0.30;56.83
51081;BME280;37130;55.670;37.596;2022-11-15T01:30:07;100087.41;;;0.32;56.61
51081;BME280;37130;55.670;37.596;2022-11-15T01:32:53;100084.81;;;0.32;56.80
51081;BME280;37130;55.670;37.596;2022-11-15T01:35:39;100079.59;;;0.32;56.73
51081;BME280;37130;55.670;37.596;2022-11-15T01:38:25;100076.97;;;0.32;57.07
51081;BME280;37130;55.670;37.596;2022-11-15T01:41:15;100076.94;;;0.29;56.68
51081;BME280;37130;55.670;37.596;2022-11-15T01:47:08;100078.72;;;0.27;56.97
51081;BME280;37130;55.670;37.596;2022-11-15T01:49:55;100077.84;;;0.25;56.74
51081;BME280;37130;55.670;37.596;2022-11-15T01:52:43;100077.84;;;0.25;56.75
51081;BME280;37130;55.670;37.596;2022-11-15T01:55:29;100094.31;;;0.24;56.56
51081;BME280;37130;55.670;37.596;2022-11-15T01:58:14;100083.88;;;0.20;56.75
51081;BME280;37130;55.670;37.596;2022-11-15T02:01:00;100085.59;;;0.15;57.02
51081;BME280;37130;55.670;37.596;2022-11-15T02:03:49;100082.13;;;0.15;56.90
51081;BME280;37130;55.670;37.596;2022-11-15T02:06:37;100085.59;;;0.12;57.01
51081;BME280;37130;55.670;37.596;2022-11-15T02:09:24;100075.22;;;0.11;56.96
51081;BME280;37130;55.670;37.596;2022-11-15T02:12:10;100080.41;;;0.12;57.00
51081;BME280;37130;55.670;37.596;2022-11-15T02:14:57;100077.78;;;0.08;56.97
51081;BME280;37130;55.670;37.596;2022-11-15T02:18:05;100083.00;;;0.06;57.19
51081;BME280;37130;55.670;37.596;2022-11-15T02:26:45;100072.56;;;-0.05;57.06
51081;BME280;37130;55.670;37.596;2022-11-15T02:35:37;100065.59;;;-0.06;57.30
51081;BME280;37130;55.670;37.596;2022-11-15T02:38:29;100063.88;;;-0.04;57.11
51081;BME280;37130;55.670;37.596;2022-11-15T02:41:20;100065.63;;;-0.03;57.51
51081;BME280;37130;55.670;37.596;2022-11-15T02:44:13;100063.00;;;-0.01;57.34
51081;BME280;37130;55.670;37.596;2022-11-15T02:47:02;100064.75;;;-0.02;57.14
51081;BME280;37130;55.670;37.596;2022-11-15T02:50:00;100063.88;;;-0.01;57.51
51081;BME280;37130;55.670;37.596;2022-11-15T02:52:47;100056.91;;;-0.03;57.22
51081;BME280;37130;55.670;37.596;2022-11-15T02:55:35;100050.84;;;-0.01;57.66
51081;BME280;37130;55.670;37.596;2022-11-15T03:09:42;100043.03;;;-0.13;57.44
51081;BME280;37130;55.670;37.596;2022-11-15T03:12:41;100043.91;;;-0.15;57.52
51081;BME280;37130;55.670;37.596;2022-11-15T03:15:32;100043.00;;;-0.14;57.42
51081;BME280;37130;55.670;37.596;2022-11-15T03:18:21;100044.72;;;-0.19;57.50
51081;BME280;37130;55.670;37.596;2022-11-15T03:21:08;100038.66;;;-0.18;57.54
51081;BME280;37130;55.670;37.596;2022-11-15T03:23:55;100022.19;;;-0.17;57.46
51081;BME280;37130;55.670;37.596;2022-11-15T03:26:43;100030.84;;;-0.17;57.42
51081;BME280;37130;55.670;37.596;2022-11-15T03:29:35;100026.53;;;-0.18;57.50
51081;BME280;37130;55.670;37.596;2022-11-15T03:32:25;100033.47;;;-0.20;57.53
51081;BME280;37130;55.670;37.596;2022-11-15T03:35:23;100040.38;;;-0.27;57.45
51081;BME280;37130;55.670;37.596;2022-11-15T03:38:23;100030.81;;;-0.29;57.32
51081;BME280;37130;55.670;37.596;2022-11-15T03:41:14;100035.19;;;-0.25;57.12
51081;BME280;37130;55.670;37.596;2022-11-15T03:44:08;100036.91;;;-0.30;57.24
51081;BME280;37130;55.670;37.596;2022-11-15T03:47:07;100041.25;;;-0.31;57.48
51081;BME280;37130;55.670;37.596;2022-11-15T03:50:08;100034.28;;;-0.30;57.21
51081;BME280;37130;55.670;37.596;2022-11-15T03:52:56;100027.38;;;-0.31;57.21
51081;BME280;37130;55.670;37.596;2022-11-15T03:55:43;100029.06;;;-0.35;57.36
51081;BME280;37130;55.670;37.596;2022-11-15T03:58:29;100030.78;;;-0.40;57.43
51081;BME280;37130;55.670;37.596;2022-11-15T04:01:15;100025.56;;;-0.40;57.28
51081;BME280;37130;55.670;37.596;2022-11-15T04:04:01;100032.53;;;-0.36;57.42
51081;BME280;37130;55.670;37.596;2022-11-15T04:06:47;100024.75;;;-0.27;57.47
51081;BME280;37130;55.670;37.596;2022-11-15T04:09:33;100016.09;;;-0.21;56.98
51081;BME280;37130;55.670;37.596;2022-11-15T04:12:40;100023.06;;;-0.17;57.16
51081;BME280;37130;55.670;37.596;2022-11-15T04:15:28;100021.31;;;-0.19;57.27
51081;BME280;37130;55.670;37.596;2022-11-15T04:18:14;100018.69;;;-0.29;57.42
51081;BME280;37130;55.670;37.596;2022-11-15T04:21:00;100022.13;;;-0.39;57.23
51081;BME280;37130;55.670;37.596;2022-11-15T04:24:05;100016.06;;;-0.33;57.34
51081;BME280;37130;55.670;37.596;2022-11-15T04:26:50;100024.75;;;-0.27;57.79
51081;BME280;37130;55.670;37.596;2022-11-15T04:29:37;100016.97;;;-0.25;57.35
51081;BME280;37130;55.670;37.596;2022-11-15T04:32:23;100011.72;;;-0.27;57.35
51081;BME280;37130;55.670;37.596;2022-11-15T04:35:09;100006.53;;;-0.31;57.11
51081;BME280;37130;55.670;37.596;2022-11-15T04:37:55;100006.53;;;-0.31;57.52
51081;BME280;37130;55.670;37.596;2022-11-15T04:40:41;99998.72;;;-0.33;57.54
51081;BME280;37130;55.670;37.596;2022-11-15T04:43:27;99997.84;;;-0.30;57.65
51081;BME280;37130;55.670;37.596;2022-11-15T04:46:14;99996.97;;;-0.29;57.48
51081;BME280;37130;55.670;37.596;2022-11-15T04:48:59;99989.22;;;-0.26;57.35
51081;BME280;37130;55.670;37.596;2022-11-15T04:51:46;99991.81;;;-0.23;57.52
51081;BME280;37130;55.670;37.596;2022-11-15T04:54:31;99994.41;;;-0.25;57.57
51081;BME280;37130;55.670;37.596;2022-11-15T04:57:17;99991.81;;;-0.26;57.47
51081;BME280;37130;55.670;37.596;2022-11-15T05:00:04;99984.00;;;-0.25;57.56
51081;BME280;37130;55.670;37.596;2022-11-15T05:02:50;99988.34;;;-0.24;57.54
51081;BME280;37130;55.670;37.596;2022-11-15T05:05:55;99984.00;;;-0.22;57.65
51081;BME280;37130;55.670;37.596;2022-11-15T05:08:41;99981.41;;;-0.20;57.64
51081;BME280;37130;55.670;37.596;2022-11-15T05:11:26;99983.16;;;-0.14;57.74
51081;BME280;37130;55.670;37.596;2022-11-15T05:14:12;99982.31;;;-0.10;57.74
51081;BME280;37130;55.670;37.596;2022-11-15T05:16:58;99979.69;;;-0.10;57.61
51081;BME280;37130;55.670;37.596;2022-11-15T05:19:44;99974.47;;;-0.12;57.84
51081;BME280;37130;55.670;37.596;2022-11-15T05:22:30;99976.22;;;-0.09;57.67
51081;BME280;37130;55.670;37.596;2022-11-15T05:25:18;99985.75;;;-0.07;57.79
51081;BME280;37130;55.670;37.596;2022-11-15T05:28:04;99987.50;;;-0.04;57.71
51081;BME280;37130;55.670;37.596;2022-11-15T05:30:49;99982.31;;;0.04;57.71
51081;BME280;37130;55.670;37.596;2022-11-15T05:33:36;99974.50;;;0.07;57.83
51081;BME280;37130;55.670;37.596;2022-11-15T05:36:31;99971.91;;;0.08;57.70
51081;BME280;37130;55.670;37.596;2022-11-15T05:39:19;99961.47;;;0.07;57.89
51081;BME280;37130;55.670;37.596;2022-11-15T05:42:06;99970.16;;;0.07;57.72
51081;BME280;37130;55.670;37.596;2022-11-15T05:44:53;99965.84;;;0.00;57.77
51081;BME280;37130;55.670;37.596;2022-11-15T05:47:39;99973.63;;;0.03;57.68
51081;BME280;37130;55.670;37.596;2022-11-15T05:50:25;99960.63;;;0.11;57.49
51081;BME280;37130;55.670;37.596;2022-11-15T05:53:12;99955.41;;;0.14;57.54
51081;BME280;37130;55.670;37.596;2022-11-15T05:55:59;99965.84;;;0.21;57.76
51081;BME280;37130;55.670;37.596;2022-11-15T05:58:46;99958.91;;;0.27;57.57
51081;BME280;37130;55.670;37.596;2022-11-15T06:01:32;99955.41;;;0.37;57.52
51081;BME280;37130;55.670;37.596;2022-11-15T06:04:17;99951.91;;;0.49;57.17
51081;BME280;37130;55.670;37.596;2022-11-15T06:07:03;99949.28;;;0.55;57.55
51081;BME280;37130;55.670;37.596;2022-11-15T06:09:49;99946.69;;;0.59;57.34
51081;BME280;37130;55.670;37.596;2022-11-15T06:12:35;99953.66;;;0.63;57.48
51081;BME280;37130;55.670;37.596;2022-11-15T06:15:21;99953.66;;;0.63;57.39
51081;BME280;37130;55.670;37.596;2022-11-15T06:18:07;99951.03;;;0.67;57.32
51081;BME280;37130;55.670;37.596;2022-11-15T06:20:53;99947.56;;;0.69;57.48
51081;BME280;37130;55.670;37.596;2022-11-15T06:23:39;99937.09;;;0.72;57.22
51081;BME280;37130;55.670;37.596;2022-11-15T06:26:24;99931.03;;;0.70;57.10
51081;BME280;37130;55.670;37.596;2022-11-15T06:29:10;99935.38;;;0.70;57.33
51081;BME280;37130;55.670;37.596;2022-11-15T06:31:56;99931.91;;;0.60;57.39
51081;BME280;37130;55.670;37.596;2022-11-15T06:34:43;99936.28;;;0.56;57.16
51081;BME280;37130;55.670;37.596;2022-11-15T06:37:29;99931.06;;;0.56;57.15
51081;BME280;37130;55.670;37.596;2022-11-15T06:40:15;99925.88;;;0.53;57.51
51081;BME280;37130;55.670;37.596;2022-11-15T06:43:01;99921.53;;;0.51;57.40
51081;BME280;37130;55.670;37.596;2022-11-15T06:45:47;99919.78;;;0.53;57.19
51081;BME280;37130;55.670;37.596;2022-11-15T06:48:37;99925.88;;;0.58;57.49
51081;BME280;37130;55.670;37.596;2022-11-15T06:51:22;99925.88;;;0.49;57.28
51081;BME280;37130;55.670;37.596;2022-11-15T06:54:08;99922.38;;;0.54;57.49
51081;BME280;37130;55.670;37.596;2022-11-15T06:56:54;99912.84;;;0.58;57.31
51081;BME280;37130;55.670;37.596;2022-11-15T06:59:40;99913.66;;;0.60;57.58
51081;BME280;37130;55.670;37.596;2022-11-15T07:02:25;99906.72;;;0.62;57.27
51081;BME280;37130;55.670;37.596;2022-11-15T07:05:12;99898.88;;;0.68;57.38
51081;BME280;37130;55.670;37.596;2022-11-15T07:07:58;99902.34;;;0.79;56.97
51081;BME280;37130;55.670;37.596;2022-11-15T07:10:44;99901.41;;;0.99;57.27
51081;BME280;37130;55.670;37.596;2022-11-15T07:13:31;99891.81;;;1.08;56.69
51081;BME280;37130;55.670;37.596;2022-11-15T07:16:21;99894.41;;;1.08;56.91
51081;BME280;37130;55.670;37.596;2022-11-15T07:19:08;99890.97;;;0.99;56.61
51081;BME280;37130;55.670;37.596;2022-11-15T07:21:53;99893.56;;;0.99;57.21
51081;BME280;37130;55.670;37.596;2022-11-15T07:24:39;99890.06;;;1.04;57.12
51081;BME280;37130;55.670;37.596;2022-11-15T07:27:25;99890.91;;;1.14;56.52
51081;BME280;37130;55.670;37.596;2022-11-15T07:30:11;99897.81;;;1.20;56.54
51081;BME280;37130;55.670;37.596;2022-11-15T07:33:00;99889.09;;;1.27;56.47
51081;BME280;37130;55.670;37.596;2022-11-15T07:35:46;99880.38;;;1.29;56.91
51081;BME280;37130;55.670;37.596;2022-11-15T07:38:34;99874.28;;;1.32;56.42
51081;BME280;37130;55.670;37.596;2022-11-15T07:41:27;99876.00;;;1.33;56.37
51081;BME280;37130;55.670;37.596;2022-11-15T07:44:12;99867.31;;;1.36;56.40
51081;BME280;37130;55.670;37.596;2022-11-15T07:46:58;99862.13;;;1.29;56.44
51081;BME280;37130;55.670;37.596;2022-11-15T07:49:44;99873.44;;;1.30;56.67
51081;BME280;37130;55.670;37.596;2022-11-15T07:52:31;99865.59;;;1.30;56.51
51081;BME280;37130;55.670;37.596;2022-11-15T07:55:16;99853.47;;;1.24;56.51
51081;BME280;37130;55.670;37.596;2022-11-15T07:58:03;99850.00;;;1.19;56.67
51081;BME280;37130;55.670;37.596;2022-11-15T08:00:49;99856.13;;;1.14;56.62
51081;BME280;37130;55.670;37.596;2022-11-15T08:03:36;99848.31;;;1.12;56.61
51081;BME280;37130;55.670;37.596;2022-11-15T08:06:21;99844.84;;;1.13;56.37
51081;BME280;37130;55.670;37.596;2022-11-15T08:09:07;99843.13;;;1.06;56.40
51081;BME280;37130;55.670;37.596;2022-11-15T08:11:53;99846.63;;;1.05;56.67
51081;BME280;37130;55.670;37.596;2022-11-15T08:14:39;99848.31;;;1.11;56.94
51081;BME280;37130;55.670;37.596;2022-11-15T08:17:25;99844.81;;;1.16;56.31
51081;BME280;37130;55.670;37.596;2022-11-15T08:20:12;99852.59;;;1.24;56.74
51081;BME280;37130;55.670;37.596;2022-11-15T08:22:58;99734.69;;;0.68;56.60
51081;BME280;37130;55.670;37.596;2022-11-15T08:25:44;99847.22;;;1.48;56.23
51081;BME280;37130;55.670;37.596;2022-11-15T08:28:30;99838.41;;;1.63;55.92
51081;BME280;37130;55.670;37.596;2022-11-15T08:31:17;99823.56;;;1.70;56.44
51081;BME280;37130;55.670;37.596;2022-11-15T08:34:03;99827.03;;;1.72;55.96
51081;BME280;37130;55.670;37.596;2022-11-15T08:36:49;99826.06;;;1.82;55.83
51081;BME280;37130;55.670;37.596;2022-11-15T08:39:35;99822.53;;;1.89;56.37
51081;BME280;37130;55.670;37.596;2022-11-15T08:42:21;99826.00;;;1.90;55.57
51081;BME280;37130;55.670;37.596;2022-11-15T08:45:07;99818.41;;;1.62;55.47
51081;BME280;37130;55.670;37.596;2022-11-15T08:47:53;99823.69;;;1.53;55.96
51081;BME280;37130;55.670;37.596;2022-11-15T08:50:39;99814.06;;;1.61;56.11
51081;BME280;37130;55.670;37.596;2022-11-15T08:53:25;99815.72;;;1.73;55.70
51081;BME280;37130;55.670;37.596;2022-11-15T08:56:12;99817.34;;;1.85;55.76
51081;BME280;37130;55.670;37.596;2022-11-15T08:58:58;99821.69;;;1.89;55.65
51081;BME280;37130;55.670;37.596;2022-11-15T09:01:43;99819.06;;;1.87;56.23
51081;BME280;37130;55.670;37.596;2022-11-15T09:04:30;99821.63;;;1.93;56.21
51081;BME280;37130;55.670;37.596;2022-11-15T09:07:15;99811.91;;;2.08;55.93
51081;BME280;37130;55.670;37.596;2022-11-15T09:10:01;99807.63;;;2.02;55.93
51081;BME280;37130;55.670;37.596;2022-11-15T09:12:47;99805.06;;;1.96;56.24
51081;BME280;37130;55.670;37.596;2022-11-15T09:15:36;99798.09;;;1.96;55.58
51081;BME280;37130;55.670;37.596;2022-11-15T09:18:21;99795.44;;;2.01;55.79
51081;BME280;37130;55.670;37.596;2022-11-15T09:21:08;99795.47;;;1.98;55.75
51081;BME280;37130;55.670;37.596;2022-11-15T09:23:56;99782.50;;;1.87;55.92
51081;BME280;37130;55.670;37.596;2022-11-15T09:26:42;99781.63;;;1.90;55.63
51081;BME280;37130;55.670;37.596;2022-11-15T09:29:28;99772.03;;;1.90;55.95
51081;BME280;37130;55.670;37.596;2022-11-15T09:32:14;99781.59;;;1.93;55.88
51081;BME280;37130;55.670;37.596;2022-11-15T09:35:00;99778.13;;;1.92;55.88
51081;BME280;37130;55.670;37.596;2022-11-15T09:37:47;99772.97;;;1.86;56.23
51081;BME280;37130;55.670;37.596;2022-11-15T09:40:40;99772.09;;;1.83;55.62
51081;BME280;37130;55.670;37.596;2022-11-15T09:43:31;99769.50;;;1.83;55.99
51081;BME280;37130;55.670;37.596;2022-11-15T09:46:27;99763.41;;;1.82;55.63
51081;BME280;37130;55.670;37.596;2022-11-15T09:49:15;99765.97;;;1.87;55.87
51081;BME280;37130;55.670;37.596;2022-11-15T09:52:02;99760.03;;;1.71;55.58
51081;BME280;37130;55.670;37.596;2022-11-15T09:54:41;99759.25;;;1.60;55.95
51081;BME280;37130;55.670;37.596;2022-11-15T09:57:38;99766.19;;;1.62;55.82
51081;BME280;37130;55.670;37.596;2022-11-15T10:00:21;99774.91;;;1.61;55.81
51081;BME280;37130;55.670;37.596;2022-11-15T10:03:11;99760.06;;;1.66;56.26
51081;BME280;37130;55.670;37.596;2022-11-15T10:05:43;99756.59;;;1.66;55.65
51081;BME280;37130;55.670;37.596;2022-11-15T10:08:15;99748.88;;;1.55;56.18
51081;BME280;37130;55.670;37.596;2022-11-15T10:10:47;99758.38;;;1.61;56.58
51081;BME280;37130;55.670;37.596;2022-11-15T10:13:34;99756.56;;;1.69;55.75
51081;BME280;37130;55.670;37.596;2022-11-15T10:19:23;99752.16;;;1.75;55.73
51081;BME280;37130;55.670;37.596;2022-11-15T10:24:30;99733.97;;;1.68;55.82
51081;BME280;37130;55.670;37.596;2022-11-15T10:27:01;99732.25;;;1.64;55.61
51081;BME280;37130;55.670;37.596;2022-11-15T10:29:28;99714.09;;;1.53;55.93
51081;BME280;37130;55.670;37.596;2022-11-15T10:31:55;99723.66;;;1.51;56.24
51081;BME280;37130;55.670;37.596;2022-11-15T10:34:23;99720.09;;;1.60;55.90
51081;BME280;37130;55.670;37.596;2022-11-15T10:39:21;99708.75;;;1.64;55.76
51081;BME280;37130;55.670;37.596;2022-11-15T10:42:25;99700.09;;;1.59;55.87
51081;BME280;37130;55.670;37.596;2022-11-15T10:44:53;99700.09;;;1.57;56.04
51081;BME280;37130;55.670;37.596;2022-11-15T10:47:22;99701.94;;;1.49;55.99
51081;BME280;37130;55.670;37.596;2022-11-15T10:49:53;99693.28;;;1.44;56.58
51081;BME280;37130;55.670;37.596;2022-11-15T10:52:21;99695.03;;;1.45;56.57
51081;BME280;37130;55.670;37.596;2022-11-15T10:54:54;99691.53;;;1.47;56.55
51081;BME280;37130;55.670;37.596;2022-11-15T10:57:23;99681.13;;;1.44;56.44
51081;BME280;37130;55.670;37.596;2022-11-15T10:59:51;99687.22;;;1.40;56.18
51081;BME280;37130;55.670;37.596;2022-11-15T11:04:56;99673.22;;;1.50;56.38
51081;BME280;37130;55.670;37.596;2022-11-15T11:07:24;99668.81;;;1.54;56.15
51081;BME280;37130;55.670;37.596;2022-11-15T11:10:00;99664.44;;;1.59;56.24
51081;BME280;37130;55.670;37.596;2022-11-15T11:12:30;99665.28;;;1.63;56.21
51081;BME280;37130;55.670;37.596;2022-11-15T11:14:59;99661.84;;;1.54;56.18
51081;BME280;37130;55.670;37.596;2022-11-15T11:20:38;99662.72;;;1.57;56.07
51081;BME280;37130;55.670;37.596;2022-11-15T11:52:49;99645.00;;;0.94;56.45
51081;BME280;37130;55.670;37.596;2022-11-15T11:57:27;99642.44;;;0.89;57.00
51081;BME280;37130;55.670;37.596;2022-11-15T11:59:58;99642.44;;;0.91;57.15
51081;BME280;37130;55.670;37.596;2022-11-15T12:02:39;99635.50;;;0.88;56.99
51081;BME280;37130;55.670;37.596;2022-11-15T12:07:54;99634.84;;;0.63;57.59
51081;BME280;37130;55.670;37.596;2022-11-15T12:10:30;99640.94;;;0.59;57.63
51081;BME280;37130;55.670;37.596;2022-11-15T12:13:04;99626.22;;;0.53;57.74
51081;BME280;37130;55.670;37.596;2022-11-15T12:15:35;99630.56;;;0.53;58.09
51081;BME280;37130;55.670;37.596;2022-11-15T12:18:04;99633.16;;;0.51;58.32
51081;BME280;37130;55.670;37.596;2022-11-15T12:20:35;99621.03;;;0.49;58.17
51081;BME280;37130;55.670;37.596;2022-11-15T12:23:05;99610.63;;;0.46;58.21
51081;BME280;37130;55.670;37.596;2022-11-15T12:25:37;99611.53;;;0.38;58.35
51081;BME280;37130;55.670;37.596;2022-11-15T12:28:13;99608.94;;;0.35;58.18
51081;BME280;37130;55.670;37.596;2022-11-15T12:30:45;99603.75;;;0.35;58.51
51081;BME280;37130;55.670;37.596;2022-11-15T12:33:32;99606.34;;;0.34;58.48
51081;BME280;37130;55.670;37.596;2022-11-15T12:36:02;99602.91;;;0.27;58.90
51081;BME280;37130;55.670;37.596;2022-11-15T12:41:17;99602.97;;;0.19;58.70
51081;BME280;37130;55.670;37.596;2022-11-15T12:43:46;99602.09;;;0.22;59.31
51081;BME280;37130;55.670;37.596;2022-11-15T12:48:53;99592.56;;;0.15;59.05
51081;BME280;37130;55.670;37.596;2022-11-15T13:02:19;99571.88;;;-0.05;60.25
51081;BME280;37130;55.670;37.596;2022-11-15T13:04:48;99571.00;;;-0.07;60.88
51081;BME280;37130;55.670;37.596;2022-11-15T13:10:47;99569.28;;;-0.10;60.97
51081;BME280;37130;55.670;37.596;2022-11-15T13:12:55;99557.16;;;-0.12;60.82
51081;BME280;37130;55.670;37.596;2022-11-15T13:15:43;99565.81;;;-0.16;61.16
51081;BME280;37130;55.670;37.596;2022-11-15T13:18:26;99544.16;;;-0.20;61.17
51081;BME280;37130;55.670;37.596;2022-11-15T13:20:55;99544.13;;;-0.12;61.77
51081;BME280;37130;55.670;37.596;2022-11-15T13:23:28;99544.06;;;0.00;61.79
51081;BME280;37130;55.670;37.596;2022-11-15T13:25:58;99542.31;;;0.01;61.54
51081;BME280;37130;55.670;37.596;2022-11-15T13:28:33;99545.88;;;-0.14;61.59
51081;BME280;37130;55.670;37.596;2022-11-15T13:31:13;99537.22;;;-0.24;61.86
51081;BME280;37130;55.670;37.596;2022-11-15T13:33:45;99545.06;;;-0.32;62.10
51081;BME280;37130;55.670;37.596;2022-11-15T13:36:20;99539.03;;;-0.34;62.29
51081;BME280;37130;55.670;37.596;2022-11-15T13:39:32;99532.13;;;-0.36;62.70
51081;BME280;37130;55.670;37.596;2022-11-15T13:41:49;99533.00;;;-0.45;62.58
51081;BME280;37130;55.670;37.596;2022-11-15T13:44:21;99532.22;;;-0.65;62.96
51081;BME280;37130;55.670;37.596;2022-11-15T13:46:48;99525.31;;;-0.82;63.12
51081;BME280;37130;55.670;37.596;2022-11-15T13:49:16;99525.34;;;-0.88;63.39
51081;BME280;37130;55.670;37.596;2022-11-15T13:54:23;99527.13;;;-1.08;63.13
51081;BME280;37130;55.670;37.596;2022-11-15T13:59:29;99515.88;;;-1.14;64.24
51081;BME280;37130;55.670;37.596;2022-11-15T14:01:58;99517.63;;;-1.22;63.99
51081;BME280;37130;55.670;37.596;2022-11-15T14:04:28;99514.16;;;-1.18;64.43
51081;BME280;37130;55.670;37.596;2022-11-15T14:06:57;99515.88;;;-1.17;64.14
51081;BME280;37130;55.670;37.596;2022-11-15T14:09:32;99514.16;;;-1.22;64.65
51081;BME280;37130;55.670;37.596;2022-11-15T14:14:51;99511.56;;;-1.24;64.64
51081;BME280;37130;55.670;37.596;2022-11-15T14:17:20;99506.38;;;-1.22;64.92
51081;BME280;37130;55.670;37.596;2022-11-15T14:19:48;99500.28;;;-1.26;65.32
51081;BME280;37130;55.670;37.596;2022-11-15T14:22:19;99515.03;;;-1.25;65.34
51081;BME280;37130;55.670;37.596;2022-11-15T14:25:04;99499.44;;;-1.26;65.87
51081;BME280;37130;55.670;37.596;2022-11-15T14:27:32;99495.13;;;-1.44;66.03
51081;BME280;37130;55.670;37.596;2022-11-15T14:30:00;99499.47;;;-1.57;66.06
51081;BME280;37130;55.670;37.596;2022-11-15T14:32:37;99493.41;;;-1.65;67.07
51081;BME280;37130;55.670;37.596;2022-11-15T14:35:08;99488.22;;;-1.70;67.59
51081;BME280;37130;55.670;37.596;2022-11-15T14:37:38;99494.28;;;-1.62;67.41
51081;BME280;37130;55.670;37.596;2022-11-15T14:40:06;99481.28;;;-1.59;66.80
51081;BME280;37130;55.670;37.596;2022-11-15T14:42:36;99482.16;;;-1.41;67.15
51081;BME280;37130;55.670;37.596;2022-11-15T14:45:09;99480.41;;;-1.38;67.52
51081;BME280;37130;55.670;37.596;2022-11-15T14:47:38;99467.44;;;-1.48;67.01
51081;BME280;37130;55.670;37.596;2022-11-15T14:50:05;99465.72;;;-1.46;67.91
51081;BME280;37130;55.670;37.596;2022-11-15T14:52:33;99457.88;;;-1.29;67.79
51081;BME280;37130;55.670;37.596;2022-11-15T14:55:03;99455.25;;;-1.14;68.54
51081;BME280;37130;55.670;37.596;2022-11-15T14:57:31;99456.09;;;-1.04;68.16
51081;BME280;37130;55.670;37.596;2022-11-15T14:59:58;99447.44;;;-1.14;67.76
51081;BME280;37130;55.670;37.596;2022-11-15T15:02:38;99450.97;;;-1.34;68.32
51081;BME280;37130;55.670;37.596;2022-11-15T15:07:46;99456.19;;;-1.63;68.12
51081;BME280;37130;55.670;37.596;2022-11-15T15:10:14;99454.47;;;-1.79;68.82
51081;BME280;37130;55.670;37.596;2022-11-15T15:13:01;99451.88;;;-1.91;68.79
51081;BME280;37130;55.670;37.596;2022-11-15T15:15:35;99453.63;;;-1.90;69.23
51081;BME280;37130;55.670;37.596;2022-11-15T15:18:04;99452.72;;;-1.86;68.64
51081;BME280;37130;55.670;37.596;2022-11-15T15:20:31;99444.09;;;-1.79;69.16
51081;BME280;37130;55.670;37.596;2022-11-15T15:22:59;99438.03;;;-1.80;69.38
51081;BME280;37130;55.670;37.596;2022-11-15T15:25:33;99439.78;;;-1.75;68.68
51081;BME280;37130;55.670;37.596;2022-11-15T15:28:01;99437.19;;;-1.75;68.46
51081;BME280;37130;55.670;37.596;2022-11-15T15:30:29;99436.28;;;-1.76;68.68
51081;BME280;37130;55.670;37.596;2022-11-15T15:32:57;99433.72;;;-1.85;68.00
51081;BME280;37130;55.670;37.596;2022-11-15T15:35:26;99431.97;;;-1.86;68.73
51081;BME280;37130;55.670;37.596;2022-11-15T15:37:56;99431.97;;;-1.89;69.06
51081;BME280;37130;55.670;37.596;2022-11-15T15:40:23;99425.91;;;-1.79;69.07
51081;BME280;37130;55.670;37.596;2022-11-15T15:42:51;99423.31;;;-1.82;69.59
51081;BME280;37130;55.670;37.596;2022-11-15T15:45:19;99408.63;;;-1.80;69.06
51081;BME280;37130;55.670;37.596;2022-11-15T15:47:46;99414.66;;;-1.72;69.22
51081;BME280;37130;55.670;37.596;2022-11-15T15:52:44;99399.09;;;-1.83;68.62
51081;BME280;37130;55.670;37.596;2022-11-15T15:55:11;99401.69;;;-1.80;69.38
51081;BME280;37130;55.670;37.596;2022-11-15T15:57:39;99394.78;;;-1.78;68.79